Norwegian Epic — C6XP7 — position and weather

sailwx.info

Track history (hours):
 
Tides and Currents Weather Stations Pressure Air Temp Water Temp Dewpoint Dewpoint Depression Visibility Wind Speed Wind Dir Waves Ship Positions

Norwegian Epic

Last reported at 2015-Aug-03 14:33 UTC. Time now 2015-Aug-03 15:08 UTC.
Position N 41°15' E 010°03'.

Length 329 m; draft 9.1 m.

Type: Passenger vessel. MMSI: 311018500.

Date/timePositionNaut miles runAvg speedWind from/ knotsBaromVisibWave heightAir tempDewpointWater temp
2015-Aug-03 14:33N 41°15' E 010°03'1616.1
2015-Aug-03 13:33N 41°19' E 009°42'1814.5
2015-Aug-03 12:19N 41°19' E 009°18'2715.1
2015-Aug-03 10:33N 41°17' E 008°42'1615.6
2015-Aug-03 09:33N 41°17' E 008°21'1615.5
2015-Aug-03 08:33N 41°17' E 008°01'1615.6
2015-Aug-03 07:33N 41°17' E 007°40'1615.7
2015-Aug-03 06:33N 41°17' E 007°19'3416.1
2015-Aug-03 04:25N 41°17' E 006°34'1416.1
2015-Aug-03 03:33N 41°17' E 006°15'2116.4
2015-Aug-03 02:17N 41°16' E 005°47'1216.4
2015-Aug-03 01:33N 41°16' E 005°31'1916.2
2015-Aug-03 00:23N 41°16' E 005°06'1715.9
2015-Aug-02 23:20N 41°16' E 004°44'3217.9
2015-Aug-02 21:33N 41°16' E 004°01'2218.4
2015-Aug-02 20:23N 41°16' E 003°33'1718.7
2015-Aug-02 19:29N 41°16' E 003°11'1718.6
2015-Aug-02 18:33N 41°16' E 002°48'1918.4
2015-Aug-02 17:33N 41°15' E 002°23'11 9.5
2015-Aug-02 16:21N 41°22' E 002°11'10 0.7
2015-Aug-02 01:30N 41°11' E 002°11'1212.8
2015-Aug-02 00:33N 40°59' E 002°11'1514.8
2015-Aug-01 23:33N 40°44' E 002°11'1615.5
2015-Aug-01 22:33N 40°29' E 002°12'2114.9
2015-Aug-01 21:10N 40°08' E 002°13'914.8
2015-Aug-01 20:33N 39°59' E 002°13'1716.9
2015-Aug-01 19:33N 39°42' E 002°13'1616.1
2015-Aug-01 18:33N 39°28' E 002°22'1211.9
2015-Aug-01 17:33N 39°30' E 002°37'3 3.1
2015-Aug-01 16:31N 39°33' E 002°38'0 0.0
2015-Aug-01 15:32N 39°33' E 002°38'0 0.0
2015-Aug-01 14:33N 39°33' E 002°38'0 0.0
2015-Aug-01 13:33N 39°33' E 002°38'0 0.0
2015-Aug-01 12:31N 39°33' E 002°38'0 0.1
2015-Aug-01 11:33N 39°33' E 002°38'6 6.0
2015-Aug-01 10:33N 39°27' E 002°35'1111.3
2015-Aug-01 09:33N 39°28' E 002°21'1413.8
2015-Aug-01 08:33N 39°42' E 002°19'1818.2
2015-Aug-01 07:34N 39°56' E 002°35'1918.8
2015-Aug-01 06:33N 40°10' E 002°51'2019.5
2015-Aug-01 05:33N 40°24' E 003°09'1919.4
2015-Aug-01 04:33N 40°37' E 003°27'8018.7
2015-Aug-01 00:17N 41°34' E 004°43'1419.7
2015-Jul-31 23:33N 41°44' E 004°57'2019.6
2015-Jul-31 22:33N 41°58' E 005°16'1818.6
2015-Jul-31 21:33N 42°10' E 005°33'1818.0
2015-Jul-31 20:34N 42°23' E 005°51'1918.4
2015-Jul-31 19:33N 42°36' E 006°08'1918.9
2015-Jul-31 18:33N 42°50' E 006°26'4018.9
2015-Jul-31 16:25N 43°23' E 006°58'1011.2
2015-Jul-31 15:33N 43°32' E 007°01'0 0.1
2015-Jul-31 14:32N 43°32' E 007°01'0 0.0
2015-Jul-31 13:27N 43°32' E 007°01'0 0.0
2015-Jul-31 12:28N 43°32' E 007°01'0 0.0
2015-Jul-31 11:23N 43°32' E 007°01'0 0.0
2015-Jul-31 10:29N 43°32' E 007°01'0 0.0
2015-Jul-31 09:30N 43°32' E 007°01'0 0.0
2015-Jul-31 08:30N 43°32' E 007°01'0 0.0
2015-Jul-31 07:25N 43°32' E 007°01'0 0.0
2015-Jul-31 06:32N 43°32' E 007°01'0 0.1
2015-Jul-31 05:32N 43°32' E 007°01'0 0.0
2015-Jul-31 04:27N 43°32' E 007°01'5 5.8
2015-Jul-31 03:33N 43°28' E 007°05'1312.9
2015-Jul-31 02:33N 43°28' E 007°23'1212.2
2015-Jul-31 01:34N 43°29' E 007°40'1212.3
2015-Jul-31 00:33N 43°29' E 007°57'1212.1
2015-Jul-30 23:34N 43°30' E 008°13'1514.6
2015-Jul-30 22:33N 43°30' E 008°33'1515.4
2015-Jul-30 21:33N 43°31' E 008°55'1615.5
2015-Jul-30 20:33N 43°31' E 009°16'1514.9
2015-Jul-30 19:33N 43°32' E 009°37'1414.3
2015-Jul-30 18:33N 43°32' E 009°56'1313.0
2015-Jul-30 17:33N 43°31' E 010°14'3 3.3
2015-Jul-30 16:33N 43°33' E 010°18'0 0.0
2015-Jul-30 15:28N 43°33' E 010°18'0 0.0
2015-Jul-30 14:32N 43°33' E 010°18'0 0.0
2015-Jul-30 13:32N 43°33' E 010°18'0 0.0
2015-Jul-30 12:33N 43°33' E 010°18'0 0.0
2015-Jul-30 11:31N 43°33' E 010°18'0 0.0
2015-Jul-30 10:31N 43°33' E 010°18'0 0.0
2015-Jul-30 09:32N 43°33' E 010°18'0 0.0
2015-Jul-30 08:33N 43°33' E 010°18'0 0.0
2015-Jul-30 07:30N 43°33' E 010°18'0 0.0
2015-Jul-30 06:31N 43°33' E 010°18'0 0.0
2015-Jul-30 05:32N 43°33' E 010°18'0 0.2
2015-Jul-30 04:34N 43°33' E 010°18'9 8.7
2015-Jul-30 03:33N 43°26' E 010°12'1615.7
2015-Jul-30 02:34N 43°11' E 010°06'1515.4
2015-Jul-30 01:33N 42°56' E 009°59'1515.0
2015-Jul-30 00:33N 42°42' E 009°53'1515.1
2015-Jul-29 23:33N 42°27' E 009°54'1515.1
2015-Jul-29 22:33N 42°13' E 010°04'1514.7
2015-Jul-29 21:33N 42°10' E 010°23'1414.2
2015-Jul-29 20:33N 42°05' E 010°42'1914.4
2015-Jul-29 19:16N 42°01' E 011°06'1217.0
2015-Jul-29 18:33N 42°02' E 011°22'115 5.1
2015-Jul-28 20:13N 40°41' E 013°11'1015.3
2015-Jul-28 19:32N 40°40' E 013°25'1515.2
2015-Jul-28 18:33N 40°37' E 013°44'1514.8
2015-Jul-28 17:33N 40°38' E 014°04'1514.7
2015-Jul-28 16:33N 40°49' E 014°17'1 0.1
2015-Jul-28 04:30N 40°50' E 014°16'7 7.6
2015-Jul-28 03:33N 40°44' E 014°12'1615.7
2015-Jul-28 02:33N 40°38' E 013°52'1716.9
2015-Jul-28 01:33N 40°40' E 013°30'1514.8
2015-Jul-28 00:33N 40°41' E 013°11'9114.9
2015-Jul-27 18:27N 41°01' E 011°14'22516.2
2015-Jul-27 04:30N 41°17' E 006°15'1616.3
2015-Jul-27 03:33N 41°16' E 005°54'1616.3
2015-Jul-27 02:33N 41°16' E 005°33'1616.5
2015-Jul-27 01:33N 41°16' E 005°11'1616.2
2015-Jul-27 00:33N 41°16' E 004°49'8116.0
2015-Jul-26 19:31N 41°16' E 003°02'1716.0
2015-Jul-26 18:26N 41°15' E 002°39'21 1.2
2015-Jul-26 01:21N 41°16' E 002°11'1316.0
2015-Jul-26 00:33N 41°03' E 002°12'1615.7
2015-Jul-25 23:33N 40°47' E 002°11'1615.9
2015-Jul-25 22:33N 40°32' E 002°12'1817.7
2015-Jul-25 21:32N 40°14' E 002°12'1817.6
2015-Jul-25 20:32N 39°56' E 002°12'1717.1
2015-Jul-25 19:33N 39°39' E 002°13'1514.4
2015-Jul-25 18:32N 39°27' E 002°23'1212.0
2015-Jul-25 17:33N 39°31' E 002°38'3 2.4
2015-Jul-25 16:29N 39°33' E 002°38'0 0.0
2015-Jul-25 15:23N 39°33' E 002°38'0 0.0
2015-Jul-25 14:06N 39°33' E 002°38'0 0.0
2015-Jul-25 13:34N 39°33' E 002°38'0 0.0
2015-Jul-25 12:31N 39°33' E 002°38'0 0.1
2015-Jul-25 11:33N 39°33' E 002°38'9 8.6
2015-Jul-25 10:33N 39°25' E 002°34'1615.4
2015-Jul-25 09:33N 39°32' E 002°16'1615.9
2015-Jul-25 08:33N 39°46' E 002°24'1818.1
2015-Jul-25 07:33N 40°00' E 002°39'1818.4
2015-Jul-25 06:34N 40°14' E 002°55'1918.8
2015-Jul-25 05:33N 40°27' E 003°13'1919.3
2015-Jul-25 04:33N 40°40' E 003°31'7919.4
2015-Jul-25 00:28N 41°36' E 004°46'1819.3
2015-Jul-24 23:33N 41°48' E 005°03'1918.5
2015-Jul-24 22:33N 42°02' E 005°21'1818.4
2015-Jul-24 21:33N 42°15' E 005°38'1818.4
2015-Jul-24 20:33N 42°27' E 005°56'1818.2
2015-Jul-24 19:33N 42°40' E 006°13'1818.1
2015-Jul-24 18:33N 42°52' E 006°32'1918.6
2015-Jul-24 17:33N 43°06' E 006°48'1818.4
2015-Jul-24 16:34N 43°23' E 006°58'9 8.4
2015-Jul-24 15:29N 43°32' E 007°01'  
Track history (hours):
 
Tides and Currents Weather Stations Pressure Air Temp Water Temp Dewpoint Dewpoint Depression Visibility Wind Speed Wind Dir Waves Ship Positions

Norwegian Epic

Last reported at 2015-Aug-03 14:33 UTC. Time now 2015-Aug-03 15:08 UTC.
Position N 41°15' E 010°03'.

Length 329 m; draft 9.1 m.

Type: Passenger vessel. MMSI: 311018500.

Date/timePositionNaut miles runAvg speedWind from/ knotsBaromVisibWave heightAir tempDewpointWater temp
2015-Aug-03 14:33N 41°15' E 010°03'1616.1
2015-Aug-03 13:33N 41°19' E 009°42'1814.5
2015-Aug-03 12:19N 41°19' E 009°18'2715.1
2015-Aug-03 10:33N 41°17' E 008°42'1615.6
2015-Aug-03 09:33N 41°17' E 008°21'1615.5
2015-Aug-03 08:33N 41°17' E 008°01'1615.6
2015-Aug-03 07:33N 41°17' E 007°40'1615.7
2015-Aug-03 06:33N 41°17' E 007°19'3416.1
2015-Aug-03 04:25N 41°17' E 006°34'1416.1
2015-Aug-03 03:33N 41°17' E 006°15'2116.4
2015-Aug-03 02:17N 41°16' E 005°47'1216.4
2015-Aug-03 01:33N 41°16' E 005°31'1916.2
2015-Aug-03 00:23N 41°16' E 005°06'1715.9
2015-Aug-02 23:20N 41°16' E 004°44'3217.9
2015-Aug-02 21:33N 41°16' E 004°01'2218.4
2015-Aug-02 20:23N 41°16' E 003°33'1718.7
2015-Aug-02 19:29N 41°16' E 003°11'1718.6
2015-Aug-02 18:33N 41°16' E 002°48'1918.4
2015-Aug-02 17:33N 41°15' E 002°23'11 9.5
2015-Aug-02 16:21N 41°22' E 002°11'10 0.7
2015-Aug-02 01:30N 41°11' E 002°11'1212.8
2015-Aug-02 00:33N 40°59' E 002°11'1514.8
2015-Aug-01 23:33N 40°44' E 002°11'1615.5
2015-Aug-01 22:33N 40°29' E 002°12'2114.9
2015-Aug-01 21:10N 40°08' E 002°13'914.8
2015-Aug-01 20:33N 39°59' E 002°13'1716.9
2015-Aug-01 19:33N 39°42' E 002°13'1616.1
2015-Aug-01 18:33N 39°28' E 002°22'1211.9
2015-Aug-01 17:33N 39°30' E 002°37'3 3.1
2015-Aug-01 16:31N 39°33' E 002°38'0 0.0
2015-Aug-01 15:32N 39°33' E 002°38'0 0.0
2015-Aug-01 14:33N 39°33' E 002°38'0 0.0
2015-Aug-01 13:33N 39°33' E 002°38'0 0.0
2015-Aug-01 12:31N 39°33' E 002°38'0 0.1
2015-Aug-01 11:33N 39°33' E 002°38'6 6.0
2015-Aug-01 10:33N 39°27' E 002°35'1111.3
2015-Aug-01 09:33N 39°28' E 002°21'1413.8
2015-Aug-01 08:33N 39°42' E 002°19'1818.2
2015-Aug-01 07:34N 39°56' E 002°35'1918.8
2015-Aug-01 06:33N 40°10' E 002°51'2019.5
2015-Aug-01 05:33N 40°24' E 003°09'1919.4
2015-Aug-01 04:33N 40°37' E 003°27'8018.7
2015-Aug-01 00:17N 41°34' E 004°43'1419.7
2015-Jul-31 23:33N 41°44' E 004°57'2019.6
2015-Jul-31 22:33N 41°58' E 005°16'1818.6
2015-Jul-31 21:33N 42°10' E 005°33'1818.0
2015-Jul-31 20:34N 42°23' E 005°51'1918.4
2015-Jul-31 19:33N 42°36' E 006°08'1918.9
2015-Jul-31 18:33N 42°50' E 006°26'4018.9
2015-Jul-31 16:25N 43°23' E 006°58'1011.2
2015-Jul-31 15:33N 43°32' E 007°01'0 0.1
2015-Jul-31 14:32N 43°32' E 007°01'0 0.0
2015-Jul-31 13:27N 43°32' E 007°01'0 0.0
2015-Jul-31 12:28N 43°32' E 007°01'0 0.0
2015-Jul-31 11:23N 43°32' E 007°01'0 0.0
2015-Jul-31 10:29N 43°32' E 007°01'0 0.0
2015-Jul-31 09:30N 43°32' E 007°01'0 0.0
2015-Jul-31 08:30N 43°32' E 007°01'0 0.0
2015-Jul-31 07:25N 43°32' E 007°01'0 0.0
2015-Jul-31 06:32N 43°32' E 007°01'0 0.1
2015-Jul-31 05:32N 43°32' E 007°01'0 0.0
2015-Jul-31 04:27N 43°32' E 007°01'5 5.8
2015-Jul-31 03:33N 43°28' E 007°05'1312.9
2015-Jul-31 02:33N 43°28' E 007°23'1212.2
2015-Jul-31 01:34N 43°29' E 007°40'1212.3
2015-Jul-31 00:33N 43°29' E 007°57'1212.1
2015-Jul-30 23:34N 43°30' E 008°13'1514.6
2015-Jul-30 22:33N 43°30' E 008°33'1515.4
2015-Jul-30 21:33N 43°31' E 008°55'1615.5
2015-Jul-30 20:33N 43°31' E 009°16'1514.9
2015-Jul-30 19:33N 43°32' E 009°37'1414.3
2015-Jul-30 18:33N 43°32' E 009°56'1313.0
2015-Jul-30 17:33N 43°31' E 010°14'3 3.3
2015-Jul-30 16:33N 43°33' E 010°18'0 0.0
2015-Jul-30 15:28N 43°33' E 010°18'0 0.0
2015-Jul-30 14:32N 43°33' E 010°18'0 0.0
2015-Jul-30 13:32N 43°33' E 010°18'0 0.0
2015-Jul-30 12:33N 43°33' E 010°18'0 0.0
2015-Jul-30 11:31N 43°33' E 010°18'0 0.0
2015-Jul-30 10:31N 43°33' E 010°18'0 0.0
2015-Jul-30 09:32N 43°33' E 010°18'0 0.0
2015-Jul-30 08:33N 43°33' E 010°18'0 0.0
2015-Jul-30 07:30N 43°33' E 010°18'0 0.0
2015-Jul-30 06:31N 43°33' E 010°18'0 0.0
2015-Jul-30 05:32N 43°33' E 010°18'0 0.2
2015-Jul-30 04:34N 43°33' E 010°18'9 8.7
2015-Jul-30 03:33N 43°26' E 010°12'1615.7
2015-Jul-30 02:34N 43°11' E 010°06'1515.4
2015-Jul-30 01:33N 42°56' E 009°59'1515.0
2015-Jul-30 00:33N 42°42' E 009°53'1515.1
2015-Jul-29 23:33N 42°27' E 009°54'1515.1
2015-Jul-29 22:33N 42°13' E 010°04'1514.7
2015-Jul-29 21:33N 42°10' E 010°23'1414.2
2015-Jul-29 20:33N 42°05' E 010°42'1914.4
2015-Jul-29 19:16N 42°01' E 011°06'1217.0
2015-Jul-29 18:33N 42°02' E 011°22'115 5.1
2015-Jul-28 20:13N 40°41' E 013°11'1015.3
2015-Jul-28 19:32N 40°40' E 013°25'1515.2
2015-Jul-28 18:33N 40°37' E 013°44'1514.8
2015-Jul-28 17:33N 40°38' E 014°04'1514.7
2015-Jul-28 16:33N 40°49' E 014°17'1 0.1
2015-Jul-28 04:30N 40°50' E 014°16'7 7.6
2015-Jul-28 03:33N 40°44' E 014°12'1615.7
2015-Jul-28 02:33N 40°38' E 013°52'1716.9
2015-Jul-28 01:33N 40°40' E 013°30'1514.8
2015-Jul-28 00:33N 40°41' E 013°11'9114.9
2015-Jul-27 18:27N 41°01' E 011°14'22516.2
2015-Jul-27 04:30N 41°17' E 006°15'1616.3
2015-Jul-27 03:33N 41°16' E 005°54'1616.3
2015-Jul-27 02:33N 41°16' E 005°33'1616.5
2015-Jul-27 01:33N 41°16' E 005°11'1616.2
2015-Jul-27 00:33N 41°16' E 004°49'8116.0
2015-Jul-26 19:31N 41°16' E 003°02'1716.0
2015-Jul-26 18:26N 41°15' E 002°39'21 1.2
2015-Jul-26 01:21N 41°16' E 002°11'1316.0
2015-Jul-26 00:33N 41°03' E 002°12'1615.7
2015-Jul-25 23:33N 40°47' E 002°11'1615.9
2015-Jul-25 22:33N 40°32' E 002°12'1817.7
2015-Jul-25 21:32N 40°14' E 002°12'1817.6
2015-Jul-25 20:32N 39°56' E 002°12'1717.1
2015-Jul-25 19:33N 39°39' E 002°13'1514.4
2015-Jul-25 18:32N 39°27' E 002°23'1212.0
2015-Jul-25 17:33N 39°31' E 002°38'3 2.4
2015-Jul-25 16:29N 39°33' E 002°38'0 0.0
2015-Jul-25 15:23N 39°33' E 002°38'0 0.0
2015-Jul-25 14:06N 39°33' E 002°38'0 0.0
2015-Jul-25 13:34N 39°33' E 002°38'0 0.0
2015-Jul-25 12:31N 39°33' E 002°38'0 0.1
2015-Jul-25 11:33N 39°33' E 002°38'9 8.6
2015-Jul-25 10:33N 39°25' E 002°34'1615.4
2015-Jul-25 09:33N 39°32' E 002°16'1615.9
2015-Jul-25 08:33N 39°46' E 002°24'1818.1
2015-Jul-25 07:33N 40°00' E 002°39'1818.4
2015-Jul-25 06:34N 40°14' E 002°55'1918.8
2015-Jul-25 05:33N 40°27' E 003°13'1919.3
2015-Jul-25 04:33N 40°40' E 003°31'7919.4
2015-Jul-25 00:28N 41°36' E 004°46'1819.3
2015-Jul-24 23:33N 41°48' E 005°03'1918.5
2015-Jul-24 22:33N 42°02' E 005°21'1818.4
2015-Jul-24 21:33N 42°15' E 005°38'1818.4
2015-Jul-24 20:33N 42°27' E 005°56'1818.2
2015-Jul-24 19:33N 42°40' E 006°13'1818.1
2015-Jul-24 18:33N 42°52' E 006°32'1918.6
2015-Jul-24 17:33N 43°06' E 006°48'1818.4
2015-Jul-24 16:34N 43°23' E 006°58'9 8.4
2015-Jul-24 15:29N 43°32' E 007°01'  

Dump ship's entire track history